Eye Of The Wind — GWAK — position and weather

sailwx.info

Track history (hours):
 
Tides and Currents Weather Stations Pressure Air Temp Water Temp Dewpoint Dewpoint Depression Visibility Wind Speed Wind Dir Waves Ship Positions

Eye Of The Wind

Last reported at 2017-Mar-25 23:33 UTC. Time now 2017-Mar-29 13:11 UTC.
Position N 39°18' W 009°41'.

Length 33 m; draft 2.8 m.

Type: Sailing vessel. MMSI: 233789000.

Date/timePositionNaut miles runAvg speedWind from/ knotsBaromVisibWave heightAir tempDewpointWater temp
2017-Mar-25 23:33N 39°18' W 009°41'5 4.3
2017-Mar-25 22:27N 39°14' W 009°41'4 4.4
2017-Mar-25 21:33N 39°10' W 009°41'7 6.6
2017-Mar-25 20:33N 39°03' W 009°40'6 6.3
2017-Mar-25 19:33N 38°57' W 009°38'6 6.1
2017-Mar-25 18:33N 38°51' W 009°37'5 5.4
2017-Mar-25 17:33N 38°46' W 009°35'5 4.6
2017-Mar-25 16:33N 38°42' W 009°32'3 3.1
2017-Mar-25 15:33N 38°39' W 009°30'4 4.0
2017-Mar-25 14:33N 38°35' W 009°28'4 4.5
2017-Mar-25 13:33N 38°31' W 009°26'5 4.8
2017-Mar-25 12:33N 38°27' W 009°24'5 5.2
2017-Mar-25 11:32N 38°22' W 009°22'4 4.4
2017-Mar-25 10:33N 38°17' W 009°21'4 4.1
2017-Mar-25 09:33N 38°13' W 009°21'4 4.1
2017-Mar-25 08:33N 38°09' W 009°20'5 5.2
2017-Mar-25 07:33N 38°04' W 009°20'4 3.8
2017-Mar-25 06:33N 38°00' W 009°19'3 2.7
2017-Mar-25 05:33N 37°57' W 009°19'3 3.2
2017-Mar-25 04:33N 37°54' W 009°20'4 3.6
2017-Mar-25 03:33N 37°51' W 009°19'3 3.5
2017-Mar-25 02:33N 37°47' W 009°19'55 4.1
2017-Mar-24 13:11N 36°57' W 008°51'5 5.3
2017-Mar-24 12:15N 36°56' W 008°45'4 5.9
2017-Mar-24 11:33N 36°55' W 008°40'7 6.1
2017-Mar-24 10:27N 36°54' W 008°31'12 6.2
2017-Mar-24 08:32N 36°50' W 008°17'  
Track history (hours):
 
Tides and Currents Weather Stations Pressure Air Temp Water Temp Dewpoint Dewpoint Depression Visibility Wind Speed Wind Dir Waves Ship Positions

Eye Of The Wind

Last reported at 2017-Mar-25 23:33 UTC. Time now 2017-Mar-29 13:11 UTC.
Position N 39°18' W 009°41'.

Length 33 m; draft 2.8 m.

Type: Sailing vessel. MMSI: 233789000.

Date/timePositionNaut miles runAvg speedWind from/ knotsBaromVisibWave heightAir tempDewpointWater temp
2017-Mar-25 23:33N 39°18' W 009°41'5 4.3
2017-Mar-25 22:27N 39°14' W 009°41'4 4.4
2017-Mar-25 21:33N 39°10' W 009°41'7 6.6
2017-Mar-25 20:33N 39°03' W 009°40'6 6.3
2017-Mar-25 19:33N 38°57' W 009°38'6 6.1
2017-Mar-25 18:33N 38°51' W 009°37'5 5.4
2017-Mar-25 17:33N 38°46' W 009°35'5 4.6
2017-Mar-25 16:33N 38°42' W 009°32'3 3.1
2017-Mar-25 15:33N 38°39' W 009°30'4 4.0
2017-Mar-25 14:33N 38°35' W 009°28'4 4.5
2017-Mar-25 13:33N 38°31' W 009°26'5 4.8
2017-Mar-25 12:33N 38°27' W 009°24'5 5.2
2017-Mar-25 11:32N 38°22' W 009°22'4 4.4
2017-Mar-25 10:33N 38°17' W 009°21'4 4.1
2017-Mar-25 09:33N 38°13' W 009°21'4 4.1
2017-Mar-25 08:33N 38°09' W 009°20'5 5.2
2017-Mar-25 07:33N 38°04' W 009°20'4 3.8
2017-Mar-25 06:33N 38°00' W 009°19'3 2.7
2017-Mar-25 05:33N 37°57' W 009°19'3 3.2
2017-Mar-25 04:33N 37°54' W 009°20'4 3.6
2017-Mar-25 03:33N 37°51' W 009°19'3 3.5
2017-Mar-25 02:33N 37°47' W 009°19'55 4.1
2017-Mar-24 13:11N 36°57' W 008°51'5 5.3
2017-Mar-24 12:15N 36°56' W 008°45'4 5.9
2017-Mar-24 11:33N 36°55' W 008°40'7 6.1
2017-Mar-24 10:27N 36°54' W 008°31'12 6.2
2017-Mar-24 08:32N 36°50' W 008°17'  

Dump ship's entire track history